sensor_id;sensor_type;location;lat;lon;timestamp;pressure;altitude;pressure_sealevel;temperature;humidity
35704;BME280;21820;51.112;13.762;2023-02-10T00:02:22;101060.34;;;22.66;51.18
35704;BME280;21820;51.112;13.762;2023-02-10T00:04:47;101070.38;;;22.72;51.13
35704;BME280;21820;51.112;13.762;2023-02-10T00:07:13;101063.28;;;22.61;51.19
35704;BME280;21820;51.112;13.762;2023-02-10T00:09:38;101070.84;;;22.53;51.07
35704;BME280;21820;51.112;13.762;2023-02-10T00:12:03;101051.91;;;22.37;51.56
35704;BME280;21820;51.112;13.762;2023-02-10T00:14:30;101067.50;;;22.39;51.63
35704;BME280;21820;51.112;13.762;2023-02-10T00:16:56;101067.09;;;22.32;52.39
35704;BME280;21820;51.112;13.762;2023-02-10T00:19:23;101071.94;;;22.26;52.61
35704;BME280;21820;51.112;13.762;2023-02-10T00:21:50;101071.53;;;22.19;52.25
35704;BME280;21820;51.112;13.762;2023-02-10T00:24:16;101071.34;;;22.10;52.43
35704;BME280;21820;51.112;13.762;2023-02-10T00:26:41;101068.94;;;22.07;52.46
35704;BME280;21820;51.112;13.762;2023-02-10T00:29:07;101075.34;;;22.03;53.48
35704;BME280;21820;51.112;13.762;2023-02-10T00:31:32;101051.16;;;21.86;52.98
35704;BME280;21820;51.112;13.762;2023-02-10T00:33:57;101072.94;;;21.87;53.18
35704;BME280;21820;51.112;13.762;2023-02-10T00:36:23;101078.28;;;21.85;53.90
35704;BME280;21820;51.112;13.762;2023-02-10T00:38:50;101072.63;;;21.79;54.00
35704;BME280;21820;51.112;13.762;2023-02-10T00:41:17;101078.81;;;21.78;53.45
35704;BME280;21820;51.112;13.762;2023-02-10T00:43:43;101083.50;;;21.73;53.77
35704;BME280;21820;51.112;13.762;2023-02-10T00:46:11;101090.81;;;21.68;53.90
35704;BME280;21820;51.112;13.762;2023-02-10T00:48:37;101091.03;;;21.65;54.24
35704;BME280;21820;51.112;13.762;2023-02-10T00:51:03;101093.84;;;21.62;54.08
35704;BME280;21820;51.112;13.762;2023-02-10T00:53:28;101088.81;;;21.59;53.85
35704;BME280;21820;51.112;13.762;2023-02-10T00:55:54;101095.09;;;21.56;54.03
35704;BME280;21820;51.112;13.762;2023-02-10T00:58:20;101083.91;;;21.54;54.61
35704;BME280;21820;51.112;13.762;2023-02-10T01:00:46;101072.16;;;21.47;54.14
35704;BME280;21820;51.112;13.762;2023-02-10T01:03:12;101089.97;;;21.67;53.99
35704;BME280;21820;51.112;13.762;2023-02-10T01:05:37;101092.53;;;21.81;53.36
35704;BME280;21820;51.112;13.762;2023-02-10T01:08:02;101092.31;;;21.97;52.84
35704;BME280;21820;51.112;13.762;2023-02-10T01:10:28;101091.25;;;22.12;52.51
35704;BME280;21820;51.112;13.762;2023-02-10T01:12:53;101088.59;;;22.25;52.48
35704;BME280;21820;51.112;13.762;2023-02-10T01:15:19;101085.97;;;22.37;52.03
35704;BME280;21820;51.112;13.762;2023-02-10T01:17:44;101092.97;;;22.49;51.45
35704;BME280;21820;51.112;13.762;2023-02-10T01:20:09;101097.03;;;22.66;51.49
35704;BME280;21820;51.112;13.762;2023-02-10T01:22:35;101100.66;;;22.76;50.85
35704;BME280;21820;51.112;13.762;2023-02-10T01:25:01;101081.59;;;22.74;50.59
35704;BME280;21820;51.112;13.762;2023-02-10T01:27:27;101087.28;;;22.91;50.51
35704;BME280;21820;51.112;13.762;2023-02-10T01:29:52;101098.84;;;22.89;49.89
35704;BME280;21820;51.112;13.762;2023-02-10T01:32:17;101098.59;;;22.92;50.25
35704;BME280;21820;51.112;13.762;2023-02-10T01:34:43;101100.97;;;22.84;50.86
35704;BME280;21820;51.112;13.762;2023-02-10T01:37:09;101097.44;;;22.72;50.68
35704;BME280;21820;51.112;13.762;2023-02-10T01:39:34;101092.44;;;22.57;51.08
35704;BME280;21820;51.112;13.762;2023-02-10T01:42:01;101091.81;;;22.53;51.58
35704;BME280;21820;51.112;13.762;2023-02-10T01:46:52;101101.69;;;22.37;51.87
35704;BME280;21820;51.112;13.762;2023-02-10T01:49:24;101106.63;;;22.29;52.11
35704;BME280;21820;51.112;13.762;2023-02-10T01:54:26;101103.31;;;22.15;52.18
35704;BME280;21820;51.112;13.762;2023-02-10T01:56:53;101094.72;;;22.00;53.02
35704;BME280;21820;51.112;13.762;2023-02-10T01:59:20;101100.69;;;22.02;53.13
35704;BME280;21820;51.112;13.762;2023-02-10T02:01:47;101102.16;;;21.93;52.89
35704;BME280;21820;51.112;13.762;2023-02-10T02:04:14;101091.69;;;21.81;52.89
35704;BME280;21820;51.112;13.762;2023-02-10T02:06:40;101106.34;;;21.83;53.36
35704;BME280;21820;51.112;13.762;2023-02-10T02:09:08;101104.03;;;21.79;53.70
35704;BME280;21820;51.112;13.762;2023-02-10T02:11:43;101097.09;;;21.65;53.35
35704;BME280;21820;51.112;13.762;2023-02-10T02:33:49;101114.25;;;22.45;52.09
35704;BME280;21820;51.112;13.762;2023-02-10T02:36:27;101109.25;;;22.54;51.49
35704;BME280;21820;51.112;13.762;2023-02-10T02:39:02;101112.53;;;22.69;51.02
35704;BME280;21820;51.112;13.762;2023-02-10T02:41:31;101114.81;;;22.73;51.28
35704;BME280;21820;51.112;13.762;2023-02-10T02:43:57;101108.38;;;22.90;49.96
35704;BME280;21820;51.112;13.762;2023-02-10T02:46:55;101103.84;;;22.92;50.50
35704;BME280;21820;51.112;13.762;2023-02-10T02:49:36;101105.97;;;22.87;50.78
35704;BME280;21820;51.112;13.762;2023-02-10T02:52:12;101101.78;;;22.84;50.48
35704;BME280;21820;51.112;13.762;2023-02-10T02:57:24;101106.06;;;22.62;50.86
35704;BME280;21820;51.112;13.762;2023-02-10T03:00:09;101098.28;;;22.48;51.89
35704;BME280;21820;51.112;13.762;2023-02-10T03:02:37;101091.72;;;22.30;51.23
35704;BME280;21820;51.112;13.762;2023-02-10T03:05:07;101087.16;;;22.21;51.71
35704;BME280;21820;51.112;13.762;2023-02-10T03:07:32;101091.66;;;22.19;52.50
35704;BME280;21820;51.112;13.762;2023-02-10T03:09:58;101105.94;;;22.15;52.31
35704;BME280;21820;51.112;13.762;2023-02-10T03:12:23;101101.72;;;22.12;52.34
35704;BME280;21820;51.112;13.762;2023-02-10T03:14:49;101110.03;;;22.06;52.63
35704;BME280;21820;51.112;13.762;2023-02-10T03:17:14;101101.13;;;21.96;53.06
35704;BME280;21820;51.112;13.762;2023-02-10T03:19:39;101106.56;;;21.93;52.90
35704;BME280;21820;51.112;13.762;2023-02-10T03:22:05;101104.25;;;21.88;52.90
35704;BME280;21820;51.112;13.762;2023-02-10T03:24:30;101111.56;;;21.83;53.02
35704;BME280;21820;51.112;13.762;2023-02-10T03:26:56;101109.38;;;21.77;53.15
35704;BME280;21820;51.112;13.762;2023-02-10T03:29:21;101105.03;;;21.64;54.08
35704;BME280;21820;51.112;13.762;2023-02-10T03:31:48;101106.75;;;21.65;53.99
35704;BME280;21820;51.112;13.762;2023-02-10T03:34:13;101105.47;;;21.70;53.58
35704;BME280;21820;51.112;13.762;2023-02-10T03:36:39;101110.94;;;21.80;53.13
35704;BME280;21820;51.112;13.762;2023-02-10T03:39:04;101087.31;;;21.81;52.74
35704;BME280;21820;51.112;13.762;2023-02-10T03:41:30;101101.31;;;22.06;52.54
35704;BME280;21820;51.112;13.762;2023-02-10T03:43:55;101104.00;;;22.17;51.87
35704;BME280;21820;51.112;13.762;2023-02-10T03:46:20;101109.66;;;22.36;52.29
35704;BME280;21820;51.112;13.762;2023-02-10T03:48:46;101111.63;;;22.45;51.92
35704;BME280;21820;51.112;13.762;2023-02-10T03:51:12;101114.25;;;22.57;51.10
35704;BME280;21820;51.112;13.762;2023-02-10T03:56:03;101122.34;;;22.78;50.18
35704;BME280;21820;51.112;13.762;2023-02-10T03:58:28;101109.97;;;22.80;50.67
35704;BME280;21820;51.112;13.762;2023-02-10T04:00:54;101119.25;;;22.96;50.53
35704;BME280;21820;51.112;13.762;2023-02-10T04:03:19;101127.47;;;22.92;50.26
35704;BME280;21820;51.112;13.762;2023-02-10T04:05:45;101132.19;;;22.87;50.35
35704;BME280;21820;51.112;13.762;2023-02-10T04:08:10;101136.66;;;22.74;50.70
35704;BME280;21820;51.112;13.762;2023-02-10T04:10:36;101140.75;;;22.65;50.41
35704;BME280;21820;51.112;13.762;2023-02-10T04:13:02;101141.28;;;22.58;51.17
35704;BME280;21820;51.112;13.762;2023-02-10T04:15:27;101143.38;;;22.53;50.93
35704;BME280;21820;51.112;13.762;2023-02-10T04:17:52;101145.28;;;22.38;51.06
35704;BME280;21820;51.112;13.762;2023-02-10T04:20:18;101131.03;;;22.30;51.60
35704;BME280;21820;51.112;13.762;2023-02-10T04:22:43;101145.53;;;22.23;52.09
35704;BME280;21820;51.112;13.762;2023-02-10T04:25:09;101128.13;;;22.09;51.96
35704;BME280;21820;51.112;13.762;2023-02-10T04:27:34;101150.66;;;22.12;52.53
35704;BME280;21820;51.112;13.762;2023-02-10T04:30:00;101155.69;;;22.02;52.62
35704;BME280;21820;51.112;13.762;2023-02-10T04:32:25;101161.34;;;21.96;53.10
35704;BME280;21820;51.112;13.762;2023-02-10T04:34:51;101166.78;;;21.93;52.62
35704;BME280;21820;51.112;13.762;2023-02-10T04:37:16;101154.22;;;21.98;52.67
35704;BME280;21820;51.112;13.762;2023-02-10T04:39:42;101141.00;;;22.12;52.31
35704;BME280;21820;51.112;13.762;2023-02-10T04:42:07;101162.47;;;22.55;50.98
35704;BME280;21820;51.112;13.762;2023-02-10T04:44:33;101184.03;;;22.83;50.54
35704;BME280;21820;51.112;13.762;2023-02-10T04:46:58;101186.22;;;23.13;49.68
35704;BME280;21820;51.112;13.762;2023-02-10T04:49:24;101189.00;;;23.35;48.70
35704;BME280;21820;51.112;13.762;2023-02-10T04:51:50;101184.84;;;23.44;48.80
35704;BME280;21820;51.112;13.762;2023-02-10T04:54:15;101180.38;;;23.57;48.65
35704;BME280;21820;51.112;13.762;2023-02-10T04:56:41;101178.41;;;23.71;47.77
35704;BME280;21820;51.112;13.762;2023-02-10T04:59:06;101164.78;;;23.66;47.85
35704;BME280;21820;51.112;13.762;2023-02-10T05:01:32;101158.31;;;23.70;47.51
35704;BME280;21820;51.112;13.762;2023-02-10T05:03:58;101177.47;;;23.83;48.12
35704;BME280;21820;51.112;13.762;2023-02-10T05:06:23;101178.44;;;23.93;47.39
35704;BME280;21820;51.112;13.762;2023-02-10T05:08:49;101180.84;;;23.96;47.55
35704;BME280;21820;51.112;13.762;2023-02-10T05:11:15;101187.91;;;23.96;47.36
35704;BME280;21820;51.112;13.762;2023-02-10T05:13:41;101160.41;;;23.89;47.43
35704;BME280;21820;51.112;13.762;2023-02-10T05:16:07;101189.63;;;24.08;47.35
35704;BME280;21820;51.112;13.762;2023-02-10T05:18:33;101188.06;;;24.05;47.25
35704;BME280;21820;51.112;13.762;2023-02-10T05:20:59;101198.00;;;24.13;46.86
35704;BME280;21820;51.112;13.762;2023-02-10T05:23:25;101197.03;;;24.14;46.84
35704;BME280;21820;51.112;13.762;2023-02-10T05:25:51;101199.31;;;24.18;46.92
35704;BME280;21820;51.112;13.762;2023-02-10T05:28:16;101198.13;;;24.22;47.07
35704;BME280;21820;51.112;13.762;2023-02-10T05:30:41;101201.34;;;24.26;47.36
35704;BME280;21820;51.112;13.762;2023-02-10T05:33:07;101196.09;;;24.26;46.97
35704;BME280;21820;51.112;13.762;2023-02-10T05:35:32;101199.91;;;24.22;47.03
35704;BME280;21820;51.112;13.762;2023-02-10T05:37:58;101203.13;;;24.14;46.89
35704;BME280;21820;51.112;13.762;2023-02-10T05:40:23;101204.31;;;23.99;47.21
35704;BME280;21820;51.112;13.762;2023-02-10T05:42:49;101201.59;;;23.88;47.39
35704;BME280;21820;51.112;13.762;2023-02-10T05:45:14;101204.19;;;23.77;47.85
35704;BME280;21820;51.112;13.762;2023-02-10T05:47:40;101190.28;;;23.53;48.89
35704;BME280;21820;51.112;13.762;2023-02-10T05:50:05;101204.34;;;23.52;48.97
35704;BME280;21820;51.112;13.762;2023-02-10T05:52:31;101204.19;;;23.43;48.71
35704;BME280;21820;51.112;13.762;2023-02-10T05:54:56;101206.34;;;23.25;49.68
35704;BME280;21820;51.112;13.762;2023-02-10T05:57:22;101201.13;;;23.12;49.43
35704;BME280;21820;51.112;13.762;2023-02-10T05:59:47;101219.19;;;23.17;49.68
35704;BME280;21820;51.112;13.762;2023-02-10T06:02:12;101226.53;;;23.12;50.18
35704;BME280;21820;51.112;13.762;2023-02-10T06:04:37;101231.34;;;23.18;49.38
35704;BME280;21820;51.112;13.762;2023-02-10T06:07:03;101237.22;;;23.21;49.69
35704;BME280;21820;51.112;13.762;2023-02-10T06:09:29;101225.59;;;23.13;50.11
35704;BME280;21820;51.112;13.762;2023-02-10T06:11:54;101244.97;;;23.23;49.91
35704;BME280;21820;51.112;13.762;2023-02-10T06:14:20;101239.50;;;23.26;49.25
35704;BME280;21820;51.112;13.762;2023-02-10T06:16:45;101242.66;;;23.31;49.77
35704;BME280;21820;51.112;13.762;2023-02-10T06:19:10;101244.94;;;23.36;49.09
35704;BME280;21820;51.112;13.762;2023-02-10T06:21:36;101237.91;;;23.36;49.37
35704;BME280;21820;51.112;13.762;2023-02-10T06:24:01;101245.91;;;23.35;49.48
35704;BME280;21820;51.112;13.762;2023-02-10T06:26:26;101247.25;;;23.40;48.50
35704;BME280;21820;51.112;13.762;2023-02-10T06:28:53;101242.00;;;23.40;49.29
35704;BME280;21820;51.112;13.762;2023-02-10T06:31:19;101244.13;;;23.35;49.49
35704;BME280;21820;51.112;13.762;2023-02-10T06:33:44;101252.97;;;23.21;49.05
35704;BME280;21820;51.112;13.762;2023-02-10T06:36:10;101259.69;;;23.13;49.87
35704;BME280;21820;51.112;13.762;2023-02-10T06:38:36;101257.50;;;23.07;49.56
35704;BME280;21820;51.112;13.762;2023-02-10T06:41:02;101262.88;;;23.05;50.11
35704;BME280;21820;51.112;13.762;2023-02-10T06:43:27;101260.56;;;23.01;49.98
35704;BME280;21820;51.112;13.762;2023-02-10T06:45:53;101268.94;;;23.06;49.97
35704;BME280;21820;51.112;13.762;2023-02-10T06:48:18;101257.63;;;23.05;49.97
35704;BME280;21820;51.112;13.762;2023-02-10T06:50:44;101267.69;;;23.11;49.68
35704;BME280;21820;51.112;13.762;2023-02-10T06:53:09;101266.81;;;23.11;49.92
35704;BME280;21820;51.112;13.762;2023-02-10T06:55:34;101278.34;;;23.21;49.29
35704;BME280;21820;51.112;13.762;2023-02-10T06:58:01;101280.03;;;23.22;49.87
35704;BME280;21820;51.112;13.762;2023-02-10T07:00:26;101281.06;;;23.32;49.05
35704;BME280;21820;51.112;13.762;2023-02-10T07:02:52;101283.00;;;23.30;49.41
35704;BME280;21820;51.112;13.762;2023-02-10T07:05:17;101282.31;;;23.39;49.23
35704;BME280;21820;51.112;13.762;2023-02-10T07:07:43;101290.31;;;23.38;49.07
35704;BME280;21820;51.112;13.762;2023-02-10T07:10:09;101288.19;;;23.43;49.69
35704;BME280;21820;51.112;13.762;2023-02-10T07:12:35;101291.16;;;23.38;49.27
35704;BME280;21820;51.112;13.762;2023-02-10T07:15:00;101298.06;;;23.39;49.33
35704;BME280;21820;51.112;13.762;2023-02-10T07:17:26;101289.56;;;23.36;49.88
35704;BME280;21820;51.112;13.762;2023-02-10T07:19:51;101295.56;;;23.25;50.42
35704;BME280;21820;51.112;13.762;2023-02-10T07:22:17;101302.81;;;23.21;49.79
35704;BME280;21820;51.112;13.762;2023-02-10T07:24:42;101308.16;;;23.20;50.85
35704;BME280;21820;51.112;13.762;2023-02-10T07:27:08;101309.84;;;23.21;50.21
35704;BME280;21820;51.112;13.762;2023-02-10T07:29:33;101315.19;;;23.19;50.75
35704;BME280;21820;51.112;13.762;2023-02-10T07:31:58;101298.84;;;23.29;50.49
35704;BME280;21820;51.112;13.762;2023-02-10T07:34:25;101293.03;;;23.36;50.24
35704;BME280;21820;51.112;13.762;2023-02-10T07:36:50;101295.72;;;23.47;49.56
35704;BME280;21820;51.112;13.762;2023-02-10T07:39:23;101288.19;;;23.43;50.42
35704;BME280;21820;51.112;13.762;2023-02-10T07:41:49;101291.81;;;23.53;50.33
35704;BME280;21820;51.112;13.762;2023-02-10T07:44:14;101295.69;;;23.60;50.08
35704;BME280;21820;51.112;13.762;2023-02-10T07:46:40;101310.38;;;23.62;49.96
35704;BME280;21820;51.112;13.762;2023-02-10T07:49:05;101303.22;;;23.64;49.69
35704;BME280;21820;51.112;13.762;2023-02-10T07:51:31;101280.13;;;23.33;45.44
35704;BME280;21820;51.112;13.762;2023-02-10T07:53:56;101290.31;;;23.25;44.31
35704;BME280;21820;51.112;13.762;2023-02-10T07:56:21;101284.91;;;23.03;44.85
35704;BME280;21820;51.112;13.762;2023-02-10T07:58:47;101301.06;;;22.97;45.54
35704;BME280;21820;51.112;13.762;2023-02-10T08:01:12;101297.94;;;22.92;46.74
35704;BME280;21820;51.112;13.762;2023-02-10T08:03:37;101313.75;;;23.03;47.16
35704;BME280;21820;51.112;13.762;2023-02-10T08:06:04;101319.09;;;23.14;47.35
35704;BME280;21820;51.112;13.762;2023-02-10T08:08:29;101323.06;;;23.19;47.47
35704;BME280;21820;51.112;13.762;2023-02-10T08:10:55;101326.09;;;23.26;49.05
35704;BME280;21820;51.112;13.762;2023-02-10T08:13:21;101316.25;;;23.30;48.37
35704;BME280;21820;51.112;13.762;2023-02-10T08:15:46;101321.25;;;23.45;48.75
35704;BME280;21820;51.112;13.762;2023-02-10T08:18:12;101319.22;;;23.49;48.80
35704;BME280;21820;51.112;13.762;2023-02-10T08:20:37;101319.31;;;23.60;48.50
35704;BME280;21820;51.112;13.762;2023-02-10T08:23:05;101310.13;;;23.65;48.53
35704;BME280;21820;51.112;13.762;2023-02-10T08:25:31;101303.72;;;23.69;48.95
35704;BME280;21820;51.112;13.762;2023-02-10T08:27:57;101309.03;;;23.80;48.07
35704;BME280;21820;51.112;13.762;2023-02-10T08:30:23;101311.16;;;23.75;49.16
35704;BME280;21820;51.112;13.762;2023-02-10T08:32:48;101322.66;;;23.85;48.83
35704;BME280;21820;51.112;13.762;2023-02-10T08:35:14;101327.91;;;23.85;48.59
35704;BME280;21820;51.112;13.762;2023-02-10T08:37:39;101329.09;;;23.81;48.59
35704;BME280;21820;51.112;13.762;2023-02-10T08:40:05;101332.16;;;23.75;48.56
35704;BME280;21820;51.112;13.762;2023-02-10T08:42:31;101338.09;;;23.66;49.20
35704;BME280;21820;51.112;13.762;2023-02-10T08:44:57;101342.56;;;23.53;49.71
35704;BME280;21820;51.112;13.762;2023-02-10T08:47:22;101345.41;;;23.50;49.81
35704;BME280;21820;51.112;13.762;2023-02-10T08:49:48;101349.41;;;23.43;50.02
35704;BME280;21820;51.112;13.762;2023-02-10T08:52:14;101348.66;;;23.41;49.67
35704;BME280;21820;51.112;13.762;2023-02-10T08:54:39;101362.75;;;23.40;49.66
35704;BME280;21820;51.112;13.762;2023-02-10T08:57:05;101346.38;;;23.37;49.51
35704;BME280;21820;51.112;13.762;2023-02-10T08:59:30;101362.19;;;23.48;50.02
35704;BME280;21820;51.112;13.762;2023-02-10T09:01:56;101361.44;;;23.58;49.34
35704;BME280;21820;51.112;13.762;2023-02-10T09:04:21;101362.88;;;23.62;49.66
35704;BME280;21820;51.112;13.762;2023-02-10T09:06:46;101344.84;;;23.58;50.04
35704;BME280;21820;51.112;13.762;2023-02-10T09:09:15;101367.50;;;23.71;49.46
35704;BME280;21820;51.112;13.762;2023-02-10T09:11:42;101375.41;;;23.82;49.62
35704;BME280;21820;51.112;13.762;2023-02-10T09:14:08;101368.50;;;23.81;49.26
35704;BME280;21820;51.112;13.762;2023-02-10T09:16:34;101368.28;;;23.84;49.46
35704;BME280;21820;51.112;13.762;2023-02-10T09:19:00;101374.97;;;23.88;48.80
35704;BME280;21820;51.112;13.762;2023-02-10T09:21:25;101374.16;;;23.88;49.59
35704;BME280;21820;51.112;13.762;2023-02-10T09:23:51;101373.06;;;23.90;49.48
35704;BME280;21820;51.112;13.762;2023-02-10T09:26:17;101380.69;;;23.82;49.51
35704;BME280;21820;51.112;13.762;2023-02-10T09:28:42;101373.25;;;23.76;49.41
35704;BME280;21820;51.112;13.762;2023-02-10T09:31:09;101371.28;;;23.67;50.02
35704;BME280;21820;51.112;13.762;2023-02-10T09:33:35;101378.63;;;23.62;49.72
35704;BME280;21820;51.112;13.762;2023-02-10T09:36:05;101382.25;;;23.49;49.87
35704;BME280;21820;51.112;13.762;2023-02-10T09:38:31;101382.34;;;23.47;49.91
35704;BME280;21820;51.112;13.762;2023-02-10T09:44:05;101367.34;;;23.49;50.45
35704;BME280;21820;51.112;13.762;2023-02-10T09:46:58;101360.41;;;23.48;50.37
35704;BME280;21820;51.112;13.762;2023-02-10T09:54:40;101360.03;;;23.65;50.16
35704;BME280;21820;51.112;13.762;2023-02-10T09:57:11;101365.78;;;23.70;50.33
35704;BME280;21820;51.112;13.762;2023-02-10T09:59:38;101363.47;;;23.78;50.09
35704;BME280;21820;51.112;13.762;2023-02-10T10:02:18;101361.78;;;23.77;50.02
35704;BME280;21820;51.112;13.762;2023-02-10T10:04:46;101354.97;;;23.75;49.85
35704;BME280;21820;51.112;13.762;2023-02-10T10:07:21;101371.94;;;23.82;49.75
35704;BME280;21820;51.112;13.762;2023-02-10T10:12:29;101372.84;;;23.70;49.79
35704;BME280;21820;51.112;13.762;2023-02-10T10:14:55;101374.63;;;23.33;44.75
35704;BME280;21820;51.112;13.762;2023-02-10T10:17:52;101375.56;;;23.07;45.17
35704;BME280;21820;51.112;13.762;2023-02-10T10:20:32;101367.06;;;22.91;46.07
35704;BME280;21820;51.112;13.762;2023-02-10T10:31:15;101374.09;;;22.90;47.67
35704;BME280;21820;51.112;13.762;2023-02-10T10:33:52;101374.09;;;23.03;47.75
35704;BME280;21820;51.112;13.762;2023-02-10T10:36:22;101369.66;;;23.16;48.31
35704;BME280;21820;51.112;13.762;2023-02-10T10:38:54;101364.22;;;23.19;47.71
35704;BME280;21820;51.112;13.762;2023-02-10T10:41:26;101357.69;;;23.24;48.06
35704;BME280;21820;51.112;13.762;2023-02-10T10:43:54;101369.16;;;23.23;45.86
35704;BME280;21820;51.112;13.762;2023-02-10T10:48:48;101358.25;;;23.17;45.72
35704;BME280;21820;51.112;13.762;2023-02-10T10:51:14;101366.13;;;23.17;45.54
35704;BME280;21820;51.112;13.762;2023-02-10T10:53:45;101362.34;;;23.08;46.15
35704;BME280;21820;51.112;13.762;2023-02-10T10:56:27;101368.94;;;23.01;45.78
35704;BME280;21820;51.112;13.762;2023-02-10T10:58:56;101372.13;;;22.94;46.68
35704;BME280;21820;51.112;13.762;2023-02-10T11:01:39;101370.03;;;22.99;47.55
35704;BME280;21820;51.112;13.762;2023-02-10T11:04:13;101366.34;;;22.89;47.86
35704;BME280;21820;51.112;13.762;2023-02-10T11:06:39;101377.69;;;23.02;48.10
35704;BME280;21820;51.112;13.762;2023-02-10T11:09:34;101379.75;;;23.09;47.99
35704;BME280;21820;51.112;13.762;2023-02-10T11:12:05;101373.03;;;23.18;47.62
35704;BME280;21820;51.112;13.762;2023-02-10T11:14:40;101375.78;;;23.29;47.97
35704;BME280;21820;51.112;13.762;2023-02-10T11:17:34;101381.25;;;23.39;47.56
35704;BME280;21820;51.112;13.762;2023-02-10T11:20:23;101377.31;;;23.44;47.36
35704;BME280;21820;51.112;13.762;2023-02-10T11:22:56;101380.63;;;23.59;47.27
35704;BME280;21820;51.112;13.762;2023-02-10T11:27:54;101384.69;;;23.75;46.66
35704;BME280;21820;51.112;13.762;2023-02-10T11:32:53;101373.66;;;23.70;46.70
35704;BME280;21820;51.112;13.762;2023-02-10T11:35:18;101394.03;;;23.79;46.98
35704;BME280;21820;51.112;13.762;2023-02-10T11:37:44;101364.69;;;23.62;47.62
35704;BME280;21820;51.112;13.762;2023-02-10T11:40:23;101379.09;;;23.56;47.76
35704;BME280;21820;51.112;13.762;2023-02-10T11:42:52;101372.81;;;23.46;47.42
35704;BME280;21820;51.112;13.762;2023-02-10T11:45:31;101374.28;;;23.25;46.41
35704;BME280;21820;51.112;13.762;2023-02-10T11:50:40;101369.16;;;22.86;44.94
35704;BME280;21820;51.112;13.762;2023-02-10T11:53:12;101373.69;;;22.84;45.46
35704;BME280;21820;51.112;13.762;2023-02-10T11:55:53;101370.53;;;22.79;46.29
35704;BME280;21820;51.112;13.762;2023-02-10T11:58:51;101380.59;;;22.85;45.58
35704;BME280;21820;51.112;13.762;2023-02-10T12:09:48;101350.38;;;23.04;45.06
35704;BME280;21820;51.112;13.762;2023-02-10T12:12:37;101343.25;;;23.06;45.53
35704;BME280;21820;51.112;13.762;2023-02-10T12:24:04;101342.28;;;23.07;45.18
35704;BME280;21820;51.112;13.762;2023-02-10T12:39:49;101347.66;;;22.56;46.04
35704;BME280;21820;51.112;13.762;2023-02-10T12:50:36;101336.00;;;22.85;45.81
35704;BME280;21820;51.112;13.762;2023-02-10T12:58:39;101322.25;;;23.06;45.53
35704;BME280;21820;51.112;13.762;2023-02-10T13:01:13;101319.09;;;23.14;45.09
35704;BME280;21820;51.112;13.762;2023-02-10T13:03:43;101324.66;;;23.22;44.95
35704;BME280;21820;51.112;13.762;2023-02-10T13:09:26;101304.38;;;23.24;44.69
35704;BME280;21820;51.112;13.762;2023-02-10T13:12:05;101309.44;;;23.27;44.66
35704;BME280;21820;51.112;13.762;2023-02-10T13:14:34;101301.44;;;23.16;44.75
35704;BME280;21820;51.112;13.762;2023-02-10T13:17:00;101298.97;;;23.02;45.33
35704;BME280;21820;51.112;13.762;2023-02-10T13:20:06;101286.19;;;22.85;45.83
35704;BME280;21820;51.112;13.762;2023-02-10T13:25:55;101288.31;;;22.67;46.24
35704;BME280;21820;51.112;13.762;2023-02-10T13:28:28;101291.66;;;22.57;46.84
35704;BME280;21820;51.112;13.762;2023-02-10T13:31:10;101289.25;;;22.54;46.97
35704;BME280;21820;51.112;13.762;2023-02-10T13:33:59;101287.06;;;22.60;46.81
35704;BME280;21820;51.112;13.762;2023-02-10T13:36:28;101286.50;;;22.68;46.23
35704;BME280;21820;51.112;13.762;2023-02-10T13:39:05;101282.75;;;22.72;46.20
35704;BME280;21820;51.112;13.762;2023-02-10T13:41:35;101286.41;;;22.82;46.13
35704;BME280;21820;51.112;13.762;2023-02-10T13:44:27;101285.84;;;22.89;45.82
35704;BME280;21820;51.112;13.762;2023-02-10T13:47:41;101277.78;;;23.05;45.40
35704;BME280;21820;51.112;13.762;2023-02-10T13:49:53;101274.94;;;23.44;45.26
35704;BME280;21820;51.112;13.762;2023-02-10T13:52:24;101283.91;;;23.42;44.21
35704;BME280;21820;51.112;13.762;2023-02-10T13:55:03;101264.28;;;23.35;44.31
35704;BME280;21820;51.112;13.762;2023-02-10T13:57:34;101275.72;;;23.57;43.48
35704;BME280;21820;51.112;13.762;2023-02-10T14:00:21;101274.38;;;23.75;44.07
35704;BME280;21820;51.112;13.762;2023-02-10T14:05:49;101253.22;;;23.42;44.47
35704;BME280;21820;51.112;13.762;2023-02-10T14:08:43;101273.56;;;23.51;45.10
35704;BME280;21820;51.112;13.762;2023-02-10T14:13:56;101275.31;;;23.27;46.27
35704;BME280;21820;51.112;13.762;2023-02-10T14:18:58;101281.94;;;23.07;46.52
35704;BME280;21820;51.112;13.762;2023-02-10T14:21:24;101276.00;;;23.05;46.84
35704;BME280;21820;51.112;13.762;2023-02-10T14:23:53;101280.28;;;23.06;46.96
35704;BME280;21820;51.112;13.762;2023-02-10T14:26:23;101269.78;;;23.06;47.06
35704;BME280;21820;51.112;13.762;2023-02-10T14:28:54;101277.13;;;23.27;46.75
35704;BME280;21820;51.112;13.762;2023-02-10T14:31:27;101280.66;;;23.38;45.83
35704;BME280;21820;51.112;13.762;2023-02-10T14:33:56;101272.22;;;23.46;46.15
35704;BME280;21820;51.112;13.762;2023-02-10T14:36:22;101265.09;;;23.59;45.73
35704;BME280;21820;51.112;13.762;2023-02-10T14:38:52;101270.75;;;23.65;45.49
35704;BME280;21820;51.112;13.762;2023-02-10T14:41:19;101276.88;;;23.77;45.46
35704;BME280;21820;51.112;13.762;2023-02-10T14:43:44;101251.09;;;23.71;45.54
35704;BME280;21820;51.112;13.762;2023-02-10T14:46:18;101267.38;;;23.87;45.17